KLIT/LIT METAR and TAF weather

Enter ICAO airport designator
Station Type Date Time Source
KLIT METAR 2019/12/08 06:58 UTC NOAA

KLIT 080658Z 17004KT 1/4SM FG VV002 04/04 A3020 RMK AO2 T00390039 RVRNO


Station Type Date Time Source
KLIT Decoded METAR 2019/12/08 06:58 UTC NOAA

LITTLE ROCK ADAMS FIELD, AR, United States (KLIT) 34-44N 92-14W 79M
Dec 08, 2019 - 01:58 AM EST / 2019.12.08 0658 UTC
Wind: from the S (170 degrees) at 5 MPH (4 KT):0
Visibility: 1/4 mile(s):0
Sky conditions: obscured
Weather: fog
Temperature: 39.0 F (3.9 C)
Dew Point: 39.0 F (3.9 C)
Relative Humidity: 100%
Pressure (altimeter): 30.2 in. Hg (1022 hPa)
ob: KLIT 080658Z 17004KT 1/4SM FG VV002 04/04 A3020 RMK AO2 T00390039 RVRNO
cycle: 7

Station Type Date Time Source
KLIT TAF 2019/12/08 06:27 UTC NOAA

TAF KLIT 080524Z 0806/0906 13007KT 1SM BR BKN002
FM080800 VRB03KT 1/2SM FG BKN003 OVC015
TEMPO 0810/0814 1/4SM FG VV002
FM081500 17006KT 4SM BR OVC015
FM082100 16008KT P6SM OVC100
FM090300 17009KT P6SM SCT015 OVC040

Example: see airport list